Barbarossa — ZDFA4 — position and weather

sailwx.info

Track history (hours):
 
Tides and Currents Weather Stations Pressure Air Temp Water Temp Dewpoint Dewpoint Depression Visibility Wind Speed Wind Dir Waves Ship Positions

Barbarossa

Last reported at 2017-Sep-21 20:30 UTC. Time now 2017-Sep-23 09:31 UTC.
Position N 51°34' W 002°58'.

Length 83 m; draft 5.4 m.

Type: Ship (hazmat cat B). MMSI: 236029000.

Date/timePositionNaut miles runAvg speedWind from/ knotsBaromVisibWave heightAir tempDewpointWater temp
2017-Sep-21 20:30N 51°34' W 002°58'0 0.0
2017-Sep-21 20:00N 51°34' W 002°58'0 0.0
2017-Sep-21 07:55N 51°34' W 002°58'0 0.0
2017-Sep-21 07:29N 51°34' W 002°58'0 0.0
2017-Sep-21 06:55N 51°34' W 002°58'0 0.0
2017-Sep-20 20:47N 51°34' W 002°58'0 0.0
2017-Sep-20 18:31N 51°34' W 002°58'0 0.0
2017-Sep-20 18:30N 51°34' W 002°58'0 0.0
2017-Sep-20 11:58N 51°34' W 002°58'0 0.0
2017-Sep-20 11:25N 51°34' W 002°58'0 0.0
2017-Sep-20 10:55N 51°34' W 002°58'0 0.0
2017-Sep-20 10:30N 51°34' W 002°58'0 0.0
2017-Sep-20 10:00N 51°34' W 002°58'0 0.0
2017-Sep-20 09:30N 51°34' W 002°58'0 0.0
2017-Sep-20 08:55N 51°34' W 002°58'0 0.0
2017-Sep-20 08:24N 51°34' W 002°58'0 0.0
2017-Sep-20 08:00N 51°34' W 002°58'0 0.0
2017-Sep-20 07:30N 51°34' W 002°58'0 0.0
2017-Sep-20 07:00N 51°34' W 002°58'0 0.0
2017-Sep-20 06:29N 51°34' W 002°58'0 0.0
2017-Sep-20 05:59N 51°34' W 002°58'0 0.0
2017-Sep-20 03:08N 51°34' W 002°58'0 0.0
2017-Sep-20 02:56N 51°34' W 002°58'0 0.0
2017-Sep-20 02:22N 51°34' W 002°58'0 0.0
2017-Sep-20 01:56N 51°34' W 002°58'0 0.0
2017-Sep-20 01:20N 51°34' W 002°58'0 0.0
2017-Sep-20 00:13N 51°34' W 002°58'0 0.0
2017-Sep-19 23:55N 51°34' W 002°58'0 0.0
2017-Sep-19 23:20N 51°34' W 002°58'0 0.0
2017-Sep-19 22:13N 51°34' W 002°58'0 0.0
2017-Sep-19 19:54N 51°34' W 002°58'0 0.0
2017-Sep-19 19:30N 51°34' W 002°58'0 0.0
2017-Sep-19 19:00N 51°34' W 002°58'0 0.0
2017-Sep-19 18:24N 51°34' W 002°58'0 0.0
2017-Sep-19 18:00N 51°34' W 002°58'0 0.0
2017-Sep-19 15:52N 51°34' W 002°58'0 0.0
2017-Sep-19 15:28N 51°34' W 002°58'0 0.0
2017-Sep-19 15:00N 51°34' W 002°58'0 0.0
2017-Sep-19 11:16N 51°34' W 002°58'0 0.0
2017-Sep-19 10:52N 51°34' W 002°58'0 0.0
2017-Sep-19 10:22N 51°34' W 002°58'0 0.0
2017-Sep-19 08:57N 51°34' W 002°58'0 0.0
2017-Sep-19 08:28N 51°34' W 002°58'0 0.0
2017-Sep-19 08:00N 51°34' W 002°58'0 0.0
2017-Sep-19 07:30N 51°34' W 002°58'0 0.0
2017-Sep-19 07:00N 51°34' W 002°58'0 0.0
2017-Sep-19 06:30N 51°34' W 002°58'0 0.7
2017-Sep-19 05:59N 51°33' W 002°58'2 2.9
2017-Sep-19 05:26N 51°32' W 002°58'3 7.6
2017-Sep-19 05:00N 51°29' W 003°01'5 9.3
2017-Sep-19 04:30N 51°25' W 003°04'54 9.8
2017-Sep-18 23:00N 51°26' W 004°31'5 9.9
2017-Sep-18 22:29N 51°26' W 004°39'5 9.8
2017-Sep-18 22:00N 51°26' W 004°47'5 9.2
2017-Sep-18 21:30N 51°26' W 004°54'5 8.9
2017-Sep-18 21:00N 51°27' W 005°01'4 8.4
2017-Sep-18 20:30N 51°27' W 005°08'4 8.5
2017-Sep-18 20:00N 51°27' W 005°15'4 8.4
2017-Sep-18 19:30N 51°27' W 005°21'4 7.8
2017-Sep-18 19:00N 51°27' W 005°28'4 7.6
2017-Sep-18 18:30N 51°27' W 005°34'39 7.0
2017-Sep-18 13:00N 52°04' W 005°52'613.0
2017-Sep-18 12:30N 52°10' W 005°51'713.1
2017-Sep-18 12:00N 52°17' W 005°49'612.6
2017-Sep-18 11:30N 52°23' W 005°48'712.3
2017-Sep-18 10:54N 52°30' W 005°46'97 9.9
2017-Sep-18 01:07N 54°06' W 005°21'110.7
2017-Sep-18 01:00N 54°07' W 005°20'510.5
2017-Sep-18 00:30N 54°12' W 005°19'510.1
2017-Sep-18 00:00N 54°17' W 005°18'5 9.9
2017-Sep-17 23:30N 54°22' W 005°17'5 9.7
2017-Sep-17 23:00N 54°27' W 005°15'5 9.5
2017-Sep-17 22:30N 54°31' W 005°14'5 9.4
2017-Sep-17 22:00N 54°36' W 005°16'510.2
2017-Sep-17 21:30N 54°40' W 005°21'510.7
2017-Sep-17 21:00N 54°45' W 005°26'611.2
2017-Sep-17 20:30N 54°49' W 005°31'611.7
2017-Sep-17 20:00N 54°54' W 005°37'912.0
2017-Sep-17 19:14N 55°02' W 005°45'512.6
2017-Sep-17 18:48N 55°07' W 005°51'412.9
2017-Sep-17 18:30N 55°10' W 005°54'714.3
2017-Sep-17 18:00N 55°16' W 006°01'713.2
2017-Sep-17 17:30N 55°21' W 006°09'611.5
2017-Sep-17 17:00N 55°23' W 006°18'611.6
2017-Sep-17 16:30N 55°28' W 006°24'611.7
2017-Sep-17 16:00N 55°33' W 006°30'510.9
2017-Sep-17 15:30N 55°37' W 006°36'510.1
2017-Sep-17 14:59N 55°42' W 006°38'510.3
2017-Sep-17 14:30N 55°47' W 006°34'40 9.5
2017-Sep-17 10:19N 56°17' W 005°48'411.0
2017-Sep-17 09:59N 56°19' W 005°43'511.2
2017-Sep-17 09:30N 56°24' W 005°37'611.2
2017-Sep-17 09:00N 56°29' W 005°38'611.5
2017-Sep-17 08:30N 56°34' W 005°30'611.2
2017-Sep-17 08:00N 56°38' W 005°23'611.4
2017-Sep-17 07:30N 56°42' W 005°16'5 9.9
2017-Sep-17 07:01N 56°46' W 005°12'4 8.3
2017-Sep-17 06:30N 56°49' W 005°07'0 0.0
2017-Sep-16 05:34N 56°50' W 005°07'0 5.7
2017-Sep-16 05:30N 56°49' W 005°07'3 7.0
2017-Sep-16 05:00N 56°47' W 005°11'2 3.4
2017-Sep-16 04:31N 56°45' W 005°13'0 0.1
2017-Sep-16 03:55N 56°45' W 005°13'0 0.1
2017-Sep-16 03:30N 56°45' W 005°13'0 0.1
2017-Sep-16 03:00N 56°45' W 005°13'0 0.0
2017-Sep-16 02:30N 56°46' W 005°13'0 0.0
2017-Sep-16 02:00N 56°46' W 005°13'0 0.1
2017-Sep-16 01:29N 56°46' W 005°13'0 0.1
2017-Sep-16 00:53N 56°45' W 005°13'0 0.1
2017-Sep-16 00:29N 56°45' W 005°13'0 0.1
2017-Sep-15 23:59N 56°45' W 005°13'0 0.0
2017-Sep-15 23:29N 56°45' W 005°13'0 0.0
2017-Sep-15 22:58N 56°45' W 005°13'0 0.0
2017-Sep-15 22:28N 56°45' W 005°13'0 0.0
2017-Sep-15 21:55N 56°45' W 005°13'0 0.0
2017-Sep-15 21:28N 56°45' W 005°13'0 0.0
2017-Sep-15 20:57N 56°45' W 005°13'0 0.0
2017-Sep-15 20:30N 56°45' W 005°13'0 0.0
2017-Sep-15 20:00N 56°45' W 005°13'0 0.1
2017-Sep-15 19:30N 56°45' W 005°13'0 0.0
2017-Sep-15 18:57N 56°45' W 005°13'0 0.0
2017-Sep-15 18:29N 56°45' W 005°13'0 0.1
2017-Sep-15 17:56N 56°45' W 005°13'0 0.0
2017-Sep-15 17:29N 56°45' W 005°13'0 0.0
2017-Sep-15 16:56N 56°45' W 005°13'0 0.0
2017-Sep-15 16:29N 56°45' W 005°13'0 0.0
2017-Sep-15 16:00N 56°45' W 005°13'0 0.0
2017-Sep-15 15:30N 56°45' W 005°13'1 2.3
2017-Sep-15 15:01N 56°44' W 005°14'4 8.0
2017-Sep-15 14:30N 56°41' W 005°18'5 9.9
2017-Sep-15 14:00N 56°37' W 005°24'5 9.9
2017-Sep-15 13:31N 56°34' W 005°30'5 9.8
2017-Sep-15 13:00N 56°30' W 005°36'5 9.4
2017-Sep-15 12:30N 56°26' W 005°38'5 9.3
2017-Sep-15 12:00N 56°21' W 005°40'5 9.9
2017-Sep-15 11:29N 56°17' W 005°47'39 9.6
2017-Sep-15 07:26N 55°49' W 006°34'4 9.8
2017-Sep-15 07:01N 55°45' W 006°36'5 9.5
2017-Sep-15 06:30N 55°40' W 006°38'4 8.8
2017-Sep-15 06:00N 55°36' W 006°34'5 9.0
2017-Sep-15 05:30N 55°33' W 006°28'4 8.4
2017-Sep-15 05:00N 55°30' W 006°23'4 7.9
2017-Sep-15 04:30N 55°28' W 006°18'4 7.2
2017-Sep-15 04:00N 55°26' W 006°12'4 7.2
2017-Sep-15 03:30N 55°25' W 006°06'3 6.5
2017-Sep-15 02:59N 55°23' W 006°01'3 6.5
2017-Sep-15 02:30N 55°21' W 005°58'3 6.6
2017-Sep-15 02:00N 55°18' W 005°55'3 6.3
2017-Sep-15 01:30N 55°15' W 005°52'3 6.7
2017-Sep-15 01:00N 55°12' W 005°49'4 8.2
2017-Sep-15 00:30N 55°09' W 005°45'11 9.6
2017-Sep-14 23:22N 54°60' W 005°35'410.2
2017-Sep-14 22:56N 54°56' W 005°30'510.7
2017-Sep-14 22:30N 54°52' W 005°27'510.9
2017-Sep-14 22:00N 54°47' W 005°22'511.0
2017-Sep-14 21:31N 54°43' W 005°17'510.9
2017-Sep-14 21:01N 54°38' W 005°13'510.9
2017-Sep-14 20:31N 54°32' W 005°11'510.5
2017-Sep-14 20:00N 54°27' W 005°10'510.5
2017-Sep-14 19:30N 54°22' W 005°11'510.4
2017-Sep-14 19:00N 54°17' W 005°12'510.3
2017-Sep-14 18:31N 54°12' W 005°13'105 9.7
2017-Sep-14 07:46N 52°28' W 005°38'2 7.4
2017-Sep-14 07:30N 52°26' W 005°38'4 7.6
2017-Sep-14 06:55N 52°22' W 005°39'3 7.9
2017-Sep-14 06:31N 52°18' W 005°40'4 8.6
2017-Sep-14 06:00N 52°14' W 005°41'4 8.5
2017-Sep-14 05:31N 52°10' W 005°41'93 9.8
2017-Sep-13 20:00N 50°37' W 005°52'13 9.6
2017-Sep-13 18:42N 50°25' W 005°52'2 9.6
2017-Sep-13 18:31N 50°23' W 005°52'  
Track history (hours):
 
Tides and Currents Weather Stations Pressure Air Temp Water Temp Dewpoint Dewpoint Depression Visibility Wind Speed Wind Dir Waves Ship Positions

Barbarossa

Last reported at 2017-Sep-21 20:30 UTC. Time now 2017-Sep-23 09:31 UTC.
Position N 51°34' W 002°58'.

Length 83 m; draft 5.4 m.

Type: Ship (hazmat cat B). MMSI: 236029000.

Date/timePositionNaut miles runAvg speedWind from/ knotsBaromVisibWave heightAir tempDewpointWater temp
2017-Sep-21 20:30N 51°34' W 002°58'0 0.0
2017-Sep-21 20:00N 51°34' W 002°58'0 0.0
2017-Sep-21 07:55N 51°34' W 002°58'0 0.0
2017-Sep-21 07:29N 51°34' W 002°58'0 0.0
2017-Sep-21 06:55N 51°34' W 002°58'0 0.0
2017-Sep-20 20:47N 51°34' W 002°58'0 0.0
2017-Sep-20 18:31N 51°34' W 002°58'0 0.0
2017-Sep-20 18:30N 51°34' W 002°58'0 0.0
2017-Sep-20 11:58N 51°34' W 002°58'0 0.0
2017-Sep-20 11:25N 51°34' W 002°58'0 0.0
2017-Sep-20 10:55N 51°34' W 002°58'0 0.0
2017-Sep-20 10:30N 51°34' W 002°58'0 0.0
2017-Sep-20 10:00N 51°34' W 002°58'0 0.0
2017-Sep-20 09:30N 51°34' W 002°58'0 0.0
2017-Sep-20 08:55N 51°34' W 002°58'0 0.0
2017-Sep-20 08:24N 51°34' W 002°58'0 0.0
2017-Sep-20 08:00N 51°34' W 002°58'0 0.0
2017-Sep-20 07:30N 51°34' W 002°58'0 0.0
2017-Sep-20 07:00N 51°34' W 002°58'0 0.0
2017-Sep-20 06:29N 51°34' W 002°58'0 0.0
2017-Sep-20 05:59N 51°34' W 002°58'0 0.0
2017-Sep-20 03:08N 51°34' W 002°58'0 0.0
2017-Sep-20 02:56N 51°34' W 002°58'0 0.0
2017-Sep-20 02:22N 51°34' W 002°58'0 0.0
2017-Sep-20 01:56N 51°34' W 002°58'0 0.0
2017-Sep-20 01:20N 51°34' W 002°58'0 0.0
2017-Sep-20 00:13N 51°34' W 002°58'0 0.0
2017-Sep-19 23:55N 51°34' W 002°58'0 0.0
2017-Sep-19 23:20N 51°34' W 002°58'0 0.0
2017-Sep-19 22:13N 51°34' W 002°58'0 0.0
2017-Sep-19 19:54N 51°34' W 002°58'0 0.0
2017-Sep-19 19:30N 51°34' W 002°58'0 0.0
2017-Sep-19 19:00N 51°34' W 002°58'0 0.0
2017-Sep-19 18:24N 51°34' W 002°58'0 0.0
2017-Sep-19 18:00N 51°34' W 002°58'0 0.0
2017-Sep-19 15:52N 51°34' W 002°58'0 0.0
2017-Sep-19 15:28N 51°34' W 002°58'0 0.0
2017-Sep-19 15:00N 51°34' W 002°58'0 0.0
2017-Sep-19 11:16N 51°34' W 002°58'0 0.0
2017-Sep-19 10:52N 51°34' W 002°58'0 0.0
2017-Sep-19 10:22N 51°34' W 002°58'0 0.0
2017-Sep-19 08:57N 51°34' W 002°58'0 0.0
2017-Sep-19 08:28N 51°34' W 002°58'0 0.0
2017-Sep-19 08:00N 51°34' W 002°58'0 0.0
2017-Sep-19 07:30N 51°34' W 002°58'0 0.0
2017-Sep-19 07:00N 51°34' W 002°58'0 0.0
2017-Sep-19 06:30N 51°34' W 002°58'0 0.7
2017-Sep-19 05:59N 51°33' W 002°58'2 2.9
2017-Sep-19 05:26N 51°32' W 002°58'3 7.6
2017-Sep-19 05:00N 51°29' W 003°01'5 9.3
2017-Sep-19 04:30N 51°25' W 003°04'54 9.8
2017-Sep-18 23:00N 51°26' W 004°31'5 9.9
2017-Sep-18 22:29N 51°26' W 004°39'5 9.8
2017-Sep-18 22:00N 51°26' W 004°47'5 9.2
2017-Sep-18 21:30N 51°26' W 004°54'5 8.9
2017-Sep-18 21:00N 51°27' W 005°01'4 8.4
2017-Sep-18 20:30N 51°27' W 005°08'4 8.5
2017-Sep-18 20:00N 51°27' W 005°15'4 8.4
2017-Sep-18 19:30N 51°27' W 005°21'4 7.8
2017-Sep-18 19:00N 51°27' W 005°28'4 7.6
2017-Sep-18 18:30N 51°27' W 005°34'39 7.0
2017-Sep-18 13:00N 52°04' W 005°52'613.0
2017-Sep-18 12:30N 52°10' W 005°51'713.1
2017-Sep-18 12:00N 52°17' W 005°49'612.6
2017-Sep-18 11:30N 52°23' W 005°48'712.3
2017-Sep-18 10:54N 52°30' W 005°46'97 9.9
2017-Sep-18 01:07N 54°06' W 005°21'110.7
2017-Sep-18 01:00N 54°07' W 005°20'510.5
2017-Sep-18 00:30N 54°12' W 005°19'510.1
2017-Sep-18 00:00N 54°17' W 005°18'5 9.9
2017-Sep-17 23:30N 54°22' W 005°17'5 9.7
2017-Sep-17 23:00N 54°27' W 005°15'5 9.5
2017-Sep-17 22:30N 54°31' W 005°14'5 9.4
2017-Sep-17 22:00N 54°36' W 005°16'510.2
2017-Sep-17 21:30N 54°40' W 005°21'510.7
2017-Sep-17 21:00N 54°45' W 005°26'611.2
2017-Sep-17 20:30N 54°49' W 005°31'611.7
2017-Sep-17 20:00N 54°54' W 005°37'912.0
2017-Sep-17 19:14N 55°02' W 005°45'512.6
2017-Sep-17 18:48N 55°07' W 005°51'412.9
2017-Sep-17 18:30N 55°10' W 005°54'714.3
2017-Sep-17 18:00N 55°16' W 006°01'713.2
2017-Sep-17 17:30N 55°21' W 006°09'611.5
2017-Sep-17 17:00N 55°23' W 006°18'611.6
2017-Sep-17 16:30N 55°28' W 006°24'611.7
2017-Sep-17 16:00N 55°33' W 006°30'510.9
2017-Sep-17 15:30N 55°37' W 006°36'510.1
2017-Sep-17 14:59N 55°42' W 006°38'510.3
2017-Sep-17 14:30N 55°47' W 006°34'40 9.5
2017-Sep-17 10:19N 56°17' W 005°48'411.0
2017-Sep-17 09:59N 56°19' W 005°43'511.2
2017-Sep-17 09:30N 56°24' W 005°37'611.2
2017-Sep-17 09:00N 56°29' W 005°38'611.5
2017-Sep-17 08:30N 56°34' W 005°30'611.2
2017-Sep-17 08:00N 56°38' W 005°23'611.4
2017-Sep-17 07:30N 56°42' W 005°16'5 9.9
2017-Sep-17 07:01N 56°46' W 005°12'4 8.3
2017-Sep-17 06:30N 56°49' W 005°07'0 0.0
2017-Sep-16 05:34N 56°50' W 005°07'0 5.7
2017-Sep-16 05:30N 56°49' W 005°07'3 7.0
2017-Sep-16 05:00N 56°47' W 005°11'2 3.4
2017-Sep-16 04:31N 56°45' W 005°13'0 0.1
2017-Sep-16 03:55N 56°45' W 005°13'0 0.1
2017-Sep-16 03:30N 56°45' W 005°13'0 0.1
2017-Sep-16 03:00N 56°45' W 005°13'0 0.0
2017-Sep-16 02:30N 56°46' W 005°13'0 0.0
2017-Sep-16 02:00N 56°46' W 005°13'0 0.1
2017-Sep-16 01:29N 56°46' W 005°13'0 0.1
2017-Sep-16 00:53N 56°45' W 005°13'0 0.1
2017-Sep-16 00:29N 56°45' W 005°13'0 0.1
2017-Sep-15 23:59N 56°45' W 005°13'0 0.0
2017-Sep-15 23:29N 56°45' W 005°13'0 0.0
2017-Sep-15 22:58N 56°45' W 005°13'0 0.0
2017-Sep-15 22:28N 56°45' W 005°13'0 0.0
2017-Sep-15 21:55N 56°45' W 005°13'0 0.0
2017-Sep-15 21:28N 56°45' W 005°13'0 0.0
2017-Sep-15 20:57N 56°45' W 005°13'0 0.0
2017-Sep-15 20:30N 56°45' W 005°13'0 0.0
2017-Sep-15 20:00N 56°45' W 005°13'0 0.1
2017-Sep-15 19:30N 56°45' W 005°13'0 0.0
2017-Sep-15 18:57N 56°45' W 005°13'0 0.0
2017-Sep-15 18:29N 56°45' W 005°13'0 0.1
2017-Sep-15 17:56N 56°45' W 005°13'0 0.0
2017-Sep-15 17:29N 56°45' W 005°13'0 0.0
2017-Sep-15 16:56N 56°45' W 005°13'0 0.0
2017-Sep-15 16:29N 56°45' W 005°13'0 0.0
2017-Sep-15 16:00N 56°45' W 005°13'0 0.0
2017-Sep-15 15:30N 56°45' W 005°13'1 2.3
2017-Sep-15 15:01N 56°44' W 005°14'4 8.0
2017-Sep-15 14:30N 56°41' W 005°18'5 9.9
2017-Sep-15 14:00N 56°37' W 005°24'5 9.9
2017-Sep-15 13:31N 56°34' W 005°30'5 9.8
2017-Sep-15 13:00N 56°30' W 005°36'5 9.4
2017-Sep-15 12:30N 56°26' W 005°38'5 9.3
2017-Sep-15 12:00N 56°21' W 005°40'5 9.9
2017-Sep-15 11:29N 56°17' W 005°47'39 9.6
2017-Sep-15 07:26N 55°49' W 006°34'4 9.8
2017-Sep-15 07:01N 55°45' W 006°36'5 9.5
2017-Sep-15 06:30N 55°40' W 006°38'4 8.8
2017-Sep-15 06:00N 55°36' W 006°34'5 9.0
2017-Sep-15 05:30N 55°33' W 006°28'4 8.4
2017-Sep-15 05:00N 55°30' W 006°23'4 7.9
2017-Sep-15 04:30N 55°28' W 006°18'4 7.2
2017-Sep-15 04:00N 55°26' W 006°12'4 7.2
2017-Sep-15 03:30N 55°25' W 006°06'3 6.5
2017-Sep-15 02:59N 55°23' W 006°01'3 6.5
2017-Sep-15 02:30N 55°21' W 005°58'3 6.6
2017-Sep-15 02:00N 55°18' W 005°55'3 6.3
2017-Sep-15 01:30N 55°15' W 005°52'3 6.7
2017-Sep-15 01:00N 55°12' W 005°49'4 8.2
2017-Sep-15 00:30N 55°09' W 005°45'11 9.6
2017-Sep-14 23:22N 54°60' W 005°35'410.2
2017-Sep-14 22:56N 54°56' W 005°30'510.7
2017-Sep-14 22:30N 54°52' W 005°27'510.9
2017-Sep-14 22:00N 54°47' W 005°22'511.0
2017-Sep-14 21:31N 54°43' W 005°17'510.9
2017-Sep-14 21:01N 54°38' W 005°13'510.9
2017-Sep-14 20:31N 54°32' W 005°11'510.5
2017-Sep-14 20:00N 54°27' W 005°10'510.5
2017-Sep-14 19:30N 54°22' W 005°11'510.4
2017-Sep-14 19:00N 54°17' W 005°12'510.3
2017-Sep-14 18:31N 54°12' W 005°13'105 9.7
2017-Sep-14 07:46N 52°28' W 005°38'2 7.4
2017-Sep-14 07:30N 52°26' W 005°38'4 7.6
2017-Sep-14 06:55N 52°22' W 005°39'3 7.9
2017-Sep-14 06:31N 52°18' W 005°40'4 8.6
2017-Sep-14 06:00N 52°14' W 005°41'4 8.5
2017-Sep-14 05:31N 52°10' W 005°41'93 9.8
2017-Sep-13 20:00N 50°37' W 005°52'13 9.6
2017-Sep-13 18:42N 50°25' W 005°52'2 9.6
2017-Sep-13 18:31N 50°23' W 005°52'  

Dump ship's entire track history